Flight Track Log - Related Links

Times and Time Zones

All times are in EDT time to prevent confusion due to time zone crossing. See the N210PM flight status page for this flight to view local times or setup timezone preferences in your user account.

Time Position Orientation Groundspeed Altitude Reporting Facility
EDT Latitude Longitude Course Direction KTS MPH feet Rate Location/Type
Sun 11:54:33 AM 41.5517 -93.6656 268° West 142 163 1,500  Level Minneapolis Center
Sun 11:55:26 AM 41.5500 -93.7294 268° West 181 208 3,400 2,557 Climbing Minneapolis Center
Sun 11:56:28 AM 41.5339 -93.8028 254° West 191 220 6,400 2,661 Climbing Minneapolis Center
Sun 11:57:30 AM 41.5197 -93.8681 254° West 185 213 8,900 2,226 Climbing Minneapolis Center
Sun 11:58:32 AM 41.5083 -93.9267 255° West 182 209 11,000 2,081 Climbing Minneapolis Center
Sun 11:59:34 AM 41.4936 -93.9917 253° West 183 211 13,200 2,177 Climbing Minneapolis Center
Sun 12:00:36 PM 41.4767 -94.0708 254° West 186 214 15,500 1,306 Climbing Minneapolis Center
Sun 12:01:38 PM 41.4617 -94.1442 255° West 200 230 15,900 242 Climbing Minneapolis Center
Sun 12:02:40 PM 41.4389 -94.2400 252° West 264 304 16,000  Climbing Minneapolis Center
Sun 12:03:42 PM 41.4142 -94.3436 252° West 288 331 15,900 -48 Descending Minneapolis Center
Sun 12:04:44 PM 41.3875 -94.4683 254° West 290 334 15,900 48 Level Minneapolis Center
Sun 12:05:46 PM 41.3644 -94.5733 254° West 293 337 16,000 48 Climbing Minneapolis Center
Sun 12:06:49 PM 41.3417 -94.6786 254° West 295 339 16,000  Level Minneapolis Center
Sun 12:07:50 PM 41.3233 -94.7625 254° West 296 341 16,000  Level Minneapolis Center
Sun 12:08:53 PM 41.2942 -94.8886 253° West 296 341 16,000  Level Minneapolis Center
Sun 12:09:55 PM 41.2706 -94.9931 253° West 297 342 16,000  Level Minneapolis Center
Sun 12:10:56 PM 41.2464 -95.0981 253° West 297 342 16,000  Level Minneapolis Center
Sun 12:11:59 PM 41.2175 -95.2250 253° West 298 343 16,000  Level Minneapolis Center
Sun 12:13:01 PM 41.1928 -95.3306 253° West 298 343 16,000 -50 Level Minneapolis Center
Sun 12:14:00 PM 41.1725 -95.4433 257° West 297 342 15,900 -526 Descending Minneapolis Center
Sun 12:14:55 PM 41.1511 -95.5292 252° West 293 337 15,000 -991 Descending Minneapolis Center
Sun 12:15:55 PM 41.1233 -95.6406 252° West 289 333 14,000 -992 Descending Minneapolis Center
Sun 12:16:56 PM 41.0986 -95.7403 252° West 287 330 13,000 -985 Descending Minneapolis Center
Sun 12:18:09 PM 41.0686 -95.8544 251° West 283 326 11,800 -984 Descending Minneapolis Center
Sun 12:18:58 PM 41.0472 -95.9397 252° West 284 327 11,000 -750 Descending Minneapolis Center
Sun 12:19:13 PM 41.0439 -95.9608 258° West 280 322 11,000  Level Minneapolis Center
Sun 12:20:10 PM 41.0208 -96.0506 251° West 252 290 11,000 -396 Level Minneapolis Center
Sun 12:20:59 PM 41.0025 -96.1217 251° West 259 298 10,300 -806 Descending Minneapolis Center
Sun 12:21:17 PM 40.9994 -96.1442 260° West 259 298 10,100 -900 Descending Minneapolis Center
Sun 12:22:19 PM 40.9775 -96.2397 253° West 267 307 9,100 -1,309 Descending Minneapolis Center
Sun 12:23:07 PM 40.9506 -96.3261 248° West 277 319 7,700 -1,429 Descending Minneapolis Center
Sun 12:23:22 PM 40.9536 -96.3369 290° West 273 314 7,600 -1,400 Descending Minneapolis Center
Sun 12:24:07 PM 40.9314 -96.4219 251° West 265 305 6,300 -1,452 Descending Minneapolis Center
Sun 12:24:24 PM 40.9353 -96.4317 298° West 271 312 6,100 -1,377 Descending Minneapolis Center
Sun 12:25:08 PM 40.9225 -96.5167 259° West 267 307 4,900 -1,355 Descending Minneapolis Center
Sun 12:25:26 PM 40.9289 -96.5300 302° West 268 308 4,700 -1,377 Descending Minneapolis Center
Sun 12:26:09 PM 40.9136 -96.6114 256° West 265 305 3,500 -1,548 Descending Minneapolis Center
Sun 12:26:28 PM 40.9211 -96.6467 286° West 266 306 3,100 -590 Descending Minneapolis Center
Sun 12:27:10 PM 40.9022 -96.7008 245° Southwest 213 245 2,900 -387 Descending Minneapolis Center
Sun 12:27:30 PM 40.9097 -96.7281 290° West 245 282 2,700 -805 Descending Minneapolis Center
Sun 12:28:32 PM 40.8808 -96.7528 213° Southwest 173 199 1,800 -871 Descending Minneapolis Center

Login

Don't have an account? Register now (free) for customized features, flight alerts, and more!